LAN432 SCEL-SAZN
Flight info
| Callsign | LAN432 |
|---|---|
| Flight time | 0h 59m |
| Altitude | 39000 |
| Route | LINER6C LINER UM783 ANKON UZ122 UGAGI |
| Aircraft | A20N/M-SDE2E3FGHIRWXY/LB1 |
Departure
| Time | 2026-04-23 14:59 |
|---|---|
| Airport | Comodoro Arturo Merino Benítez International Airport (SCEL) |
Arrival
| Time | 2026-04-23 15:59 |
|---|---|
| Airport | Presidente Perón International Airport (SAZN) |
| Time | Latitude | Longitude | Altitude | Speed | Heading |
|---|---|---|---|---|---|
| 2026-04-23 14:38 | -33.39711 | -70.79011 | 1564 ft | 0 kts | 355° |
| 2026-04-23 14:50 | -33.39721 | -70.79010 | 1564 ft | 2 kts | 356° |
| 2026-04-23 14:50 | -33.39738 | -70.79009 | 1564 ft | 2 kts | 356° |
| 2026-04-23 14:50 | -33.39754 | -70.79008 | 1564 ft | 2 kts | 358° |
| 2026-04-23 14:50 | -33.39771 | -70.79008 | 1564 ft | 2 kts | 5° |
| 2026-04-23 14:51 | -33.39787 | -70.79013 | 1564 ft | 2 kts | 47° |
| 2026-04-23 14:51 | -33.39795 | -70.79030 | 1564 ft | 2 kts | 82° |
| 2026-04-23 14:51 | -33.39796 | -70.79050 | 1564 ft | 2 kts | 87° |
| 2026-04-23 14:51 | -33.39797 | -70.79070 | 1564 ft | 2 kts | 86° |
| 2026-04-23 14:52 | -33.39798 | -70.79087 | 1564 ft | 1 kts | 86° |
| 2026-04-23 14:52 | -33.39798 | -70.79093 | 1564 ft | 0 kts | 86° |
| 2026-04-23 14:53 | -33.39798 | -70.79092 | 1564 ft | 1 kts | 86° |
| 2026-04-23 14:53 | -33.39796 | -70.79048 | 1564 ft | 10 kts | 87° |
| 2026-04-23 14:54 | -33.39791 | -70.78918 | 1564 ft | 17 kts | 88° |
| 2026-04-23 14:54 | -33.39753 | -70.78823 | 1583 ft | 15 kts | 95° |
| 2026-04-23 14:54 | -33.39686 | -70.78773 | 1582 ft | 10 kts | 347° |
| 2026-04-23 14:54 | -33.39577 | -70.78782 | 1583 ft | 22 kts | 358° |
| 2026-04-23 14:55 | -33.39388 | -70.78791 | 1582 ft | 32 kts | 358° |
| 2026-04-23 14:55 | -33.39139 | -70.78804 | 1583 ft | 39 kts | 356° |
| 2026-04-23 14:55 | -33.38841 | -70.78821 | 1583 ft | 46 kts | 357° |
| 2026-04-23 14:55 | -33.38507 | -70.78837 | 1583 ft | 50 kts | 358° |
| 2026-04-23 14:56 | -33.38150 | -70.78857 | 1582 ft | 51 kts | 356° |
| 2026-04-23 14:56 | -33.37856 | -70.78872 | 1583 ft | 36 kts | 357° |
| 2026-04-23 14:56 | -33.37657 | -70.78877 | 1583 ft | 13 kts | 15° |
| 2026-04-23 14:56 | -33.37624 | -70.78801 | 1582 ft | 6 kts | 87° |
| 2026-04-23 14:57 | -33.37624 | -70.78800 | 1582 ft | 0 kts | 87° |
| 2026-04-23 14:58 | -33.37624 | -70.78784 | 1582 ft | 4 kts | 87° |
| 2026-04-23 14:58 | -33.37622 | -70.78738 | 1581 ft | 7 kts | 88° |
| 2026-04-23 14:58 | -33.37641 | -70.78682 | 1583 ft | 8 kts | 140° |
| 2026-04-23 14:58 | -33.37698 | -70.78666 | 1583 ft | 10 kts | 175° |
| 2026-04-23 14:59 | -33.37913 | -70.78657 | 1581 ft | 65 kts | 177° |
| 2026-04-23 14:59 | -33.38592 | -70.78619 | 1581 ft | 127 kts | 177° |
| 2026-04-23 14:59 | -33.39637 | -70.78559 | 1643 ft | 168 kts | 177° |
| 2026-04-23 14:59 | -33.40805 | -70.78500 | 2390 ft | 170 kts | 177° |
| 2026-04-23 15:00 | -33.41996 | -70.78442 | 3293 ft | 173 kts | 178° |
| 2026-04-23 15:00 | -33.43214 | -70.78404 | 4042 ft | 183 kts | 179° |
| 2026-04-23 15:00 | -33.44106 | -70.78370 | 4373 ft | 198 kts | 178° |
| 2026-04-23 15:00 | -33.45579 | -70.78291 | 4883 ft | 223 kts | 177° |
| 2026-04-23 15:01 | -33.47192 | -70.78189 | 5370 ft | 247 kts | 177° |
| 2026-04-23 15:01 | -33.48994 | -70.78065 | 5902 ft | 271 kts | 176° |
| 2026-04-23 15:01 | -33.50939 | -70.77921 | 6697 ft | 283 kts | 176° |
| 2026-04-23 15:01 | -33.52927 | -70.77770 | 7592 ft | 289 kts | 176° |
| 2026-04-23 15:02 | -33.54971 | -70.77620 | 8496 ft | 294 kts | 177° |
| 2026-04-23 15:02 | -33.57013 | -70.77487 | 9419 ft | 299 kts | 178° |
| 2026-04-23 15:02 | -33.59095 | -70.77357 | 10349 ft | 303 kts | 178° |
| 2026-04-23 15:02 | -33.61225 | -70.77224 | 11222 ft | 307 kts | 178° |
| 2026-04-23 15:03 | -33.63369 | -70.77088 | 12140 ft | 310 kts | 178° |
| 2026-04-23 15:03 | -33.65545 | -70.76949 | 13085 ft | 312 kts | 178° |
| 2026-04-23 15:03 | -33.67694 | -70.76812 | 14029 ft | 313 kts | 178° |
| 2026-04-23 15:03 | -33.69933 | -70.76670 | 14535 ft | 330 kts | 178° |
| 2026-04-23 15:04 | -33.72285 | -70.76522 | 14767 ft | 353 kts | 178° |
| 2026-04-23 15:04 | -33.74833 | -70.76360 | 15079 ft | 372 kts | 178° |
| 2026-04-23 15:04 | -33.77451 | -70.76191 | 15811 ft | 376 kts | 179° |
| 2026-04-23 15:04 | -33.80041 | -70.76021 | 16613 ft | 379 kts | 179° |
| 2026-04-23 15:05 | -33.82701 | -70.75849 | 17388 ft | 382 kts | 179° |
| 2026-04-23 15:05 | -33.85374 | -70.75676 | 18175 ft | 385 kts | 179° |
| 2026-04-23 15:05 | -33.88048 | -70.75503 | 18856 ft | 388 kts | 179° |
| 2026-04-23 15:05 | -33.90734 | -70.75330 | 19480 ft | 392 kts | 180° |
| 2026-04-23 15:06 | -33.93460 | -70.75053 | 20128 ft | 397 kts | 174° |
| 2026-04-23 15:06 | -33.96228 | -70.74497 | 20752 ft | 401 kts | 174° |
| 2026-04-23 15:06 | -33.99013 | -70.73947 | 21348 ft | 405 kts | 174° |
| 2026-04-23 15:06 | -34.01789 | -70.73405 | 21936 ft | 409 kts | 174° |
| 2026-04-23 15:07 | -34.04619 | -70.72855 | 22550 ft | 413 kts | 174° |
| 2026-04-23 15:07 | -34.07466 | -70.72299 | 23141 ft | 416 kts | 175° |
| 2026-04-23 15:07 | -34.10326 | -70.71741 | 23715 ft | 421 kts | 175° |
| 2026-04-23 15:07 | -34.13230 | -70.71174 | 24216 ft | 424 kts | 175° |
| 2026-04-23 15:08 | -34.16175 | -70.70598 | 24724 ft | 426 kts | 175° |
| 2026-04-23 15:08 | -34.19116 | -70.70023 | 25222 ft | 429 kts | 175° |
| 2026-04-23 15:08 | -34.22050 | -70.69448 | 25713 ft | 432 kts | 175° |
| 2026-04-23 15:09 | -34.28036 | -70.68274 | 26640 ft | 438 kts | 175° |
| 2026-04-23 15:09 | -34.31056 | -70.67680 | 27087 ft | 441 kts | 175° |
| 2026-04-23 15:09 | -34.34072 | -70.67086 | 27506 ft | 444 kts | 175° |
| 2026-04-23 15:09 | -34.37149 | -70.66480 | 27952 ft | 447 kts | 175° |
| 2026-04-23 15:10 | -34.40239 | -70.65871 | 28346 ft | 450 kts | 175° |
| 2026-04-23 15:10 | -34.43318 | -70.65265 | 28745 ft | 452 kts | 175° |
| 2026-04-23 15:10 | -34.46425 | -70.64652 | 29186 ft | 454 kts | 175° |
| 2026-04-23 15:10 | -34.49539 | -70.64037 | 29536 ft | 457 kts | 175° |
| 2026-04-23 15:11 | -34.52692 | -70.63415 | 29937 ft | 460 kts | 175° |
| 2026-04-23 15:11 | -34.55801 | -70.62800 | 30261 ft | 463 kts | 175° |
| 2026-04-23 15:11 | -34.58980 | -70.62172 | 30632 ft | 464 kts | 175° |
| 2026-04-23 15:11 | -34.62192 | -70.61536 | 30915 ft | 467 kts | 175° |
| 2026-04-23 15:12 | -34.65421 | -70.60897 | 31252 ft | 469 kts | 175° |
| 2026-04-23 15:12 | -34.68657 | -70.60254 | 31640 ft | 470 kts | 175° |
| 2026-04-23 15:12 | -34.71861 | -70.59618 | 32064 ft | 469 kts | 175° |
| 2026-04-23 15:12 | -34.75062 | -70.58981 | 32508 ft | 468 kts | 175° |
| 2026-04-23 15:13 | -34.78313 | -70.58334 | 32922 ft | 467 kts | 175° |
| 2026-04-23 15:13 | -34.81486 | -70.57703 | 33318 ft | 467 kts | 175° |
| 2026-04-23 15:13 | -34.84698 | -70.57063 | 33723 ft | 467 kts | 175° |
| 2026-04-23 15:13 | -34.87896 | -70.56425 | 34118 ft | 466 kts | 175° |
| 2026-04-23 15:14 | -34.91112 | -70.55785 | 34441 ft | 465 kts | 175° |
| 2026-04-23 15:14 | -34.94280 | -70.55153 | 34697 ft | 466 kts | 175° |
| 2026-04-23 15:14 | -34.97489 | -70.54512 | 34966 ft | 467 kts | 175° |
| 2026-04-23 15:14 | -35.00717 | -70.53867 | 35236 ft | 468 kts | 175° |
| 2026-04-23 15:15 | -35.03885 | -70.53233 | 35454 ft | 469 kts | 175° |
| 2026-04-23 15:15 | -35.07130 | -70.52583 | 35726 ft | 469 kts | 175° |
| 2026-04-23 15:15 | -35.10300 | -70.51947 | 35973 ft | 469 kts | 175° |
| 2026-04-23 15:15 | -35.13524 | -70.51300 | 36230 ft | 469 kts | 175° |
| 2026-04-23 15:16 | -35.16736 | -70.50654 | 36480 ft | 469 kts | 175° |
| 2026-04-23 15:16 | -35.19954 | -70.49797 | 36692 ft | 475 kts | 168° |
| 2026-04-23 15:16 | -35.23091 | -70.48460 | 36908 ft | 479 kts | 161° |
| 2026-04-23 15:16 | -35.26183 | -70.46857 | 37138 ft | 480 kts | 162° |
| 2026-04-23 15:17 | -35.29237 | -70.45308 | 37355 ft | 480 kts | 162° |
| 2026-04-23 15:17 | -35.32318 | -70.43756 | 37561 ft | 481 kts | 162° |
| 2026-04-23 15:17 | -35.35462 | -70.42170 | 37756 ft | 481 kts | 162° |
| 2026-04-23 15:17 | -35.38546 | -70.40609 | 37956 ft | 481 kts | 162° |
| 2026-04-23 15:18 | -35.41679 | -70.39021 | 38143 ft | 482 kts | 162° |
| 2026-04-23 15:18 | -35.44741 | -70.37466 | 38318 ft | 483 kts | 162° |
| 2026-04-23 15:18 | -35.47854 | -70.35884 | 38505 ft | 483 kts | 162° |
| 2026-04-23 15:18 | -35.50960 | -70.34302 | 38679 ft | 483 kts | 162° |
| 2026-04-23 15:19 | -35.54066 | -70.32720 | 38830 ft | 483 kts | 162° |
| 2026-04-23 15:19 | -35.57151 | -70.31147 | 38960 ft | 484 kts | 162° |
| 2026-04-23 15:19 | -35.60277 | -70.29552 | 39091 ft | 484 kts | 162° |
| 2026-04-23 15:20 | -35.65470 | -70.26898 | 39197 ft | 484 kts | 162° |
| 2026-04-23 15:20 | -35.72720 | -70.23186 | 39195 ft | 483 kts | 162° |
| 2026-04-23 15:21 | -35.78902 | -70.20017 | 39196 ft | 483 kts | 162° |
| 2026-04-23 15:21 | -35.85093 | -70.16838 | 39188 ft | 483 kts | 162° |
| 2026-04-23 15:22 | -35.91270 | -70.13659 | 39187 ft | 482 kts | 162° |
| 2026-04-23 15:22 | -35.97473 | -70.10462 | 39161 ft | 480 kts | 162° |
| 2026-04-23 15:23 | -36.03609 | -70.07296 | 39176 ft | 481 kts | 162° |
| 2026-04-23 15:23 | -36.09829 | -70.04082 | 39178 ft | 484 kts | 162° |
| 2026-04-23 15:24 | -36.16001 | -70.00884 | 39169 ft | 483 kts | 162° |
| 2026-04-23 15:24 | -36.22207 | -69.97665 | 39166 ft | 483 kts | 162° |
| 2026-04-23 15:25 | -36.28398 | -69.94447 | 39165 ft | 483 kts | 162° |
| 2026-04-23 15:25 | -36.34604 | -69.91217 | 39163 ft | 484 kts | 162° |
| 2026-04-23 15:26 | -36.40811 | -69.87980 | 39156 ft | 483 kts | 162° |
| 2026-04-23 15:26 | -36.47007 | -69.84743 | 39149 ft | 482 kts | 162° |
| 2026-04-23 15:27 | -36.53192 | -69.81508 | 39140 ft | 482 kts | 162° |
| 2026-04-23 15:27 | -36.59353 | -69.78279 | 39141 ft | 482 kts | 162° |
| 2026-04-23 15:28 | -36.65550 | -69.75026 | 39136 ft | 482 kts | 161° |
| 2026-04-23 15:28 | -36.71699 | -69.71792 | 39139 ft | 483 kts | 161° |
| 2026-04-23 15:29 | -36.77910 | -69.68521 | 39133 ft | 481 kts | 161° |
| 2026-04-23 15:29 | -36.84071 | -69.65269 | 39123 ft | 481 kts | 161° |
| 2026-04-23 15:30 | -36.90237 | -69.62009 | 39127 ft | 481 kts | 161° |
| 2026-04-23 15:30 | -36.96416 | -69.58737 | 39122 ft | 480 kts | 161° |
| 2026-04-23 15:31 | -37.02558 | -69.55477 | 39125 ft | 480 kts | 161° |
| 2026-04-23 15:31 | -37.08603 | -69.52265 | 39118 ft | 481 kts | 161° |
| 2026-04-23 15:32 | -37.14182 | -69.49294 | 39121 ft | 480 kts | 161° |
| 2026-04-23 15:32 | -37.20345 | -69.46008 | 39123 ft | 480 kts | 161° |
| 2026-04-23 15:33 | -37.26489 | -69.42726 | 39127 ft | 481 kts | 161° |
| 2026-04-23 15:33 | -37.32690 | -69.39408 | 39131 ft | 480 kts | 161° |
| 2026-04-23 15:34 | -37.38811 | -69.36127 | 39133 ft | 480 kts | 161° |
| 2026-04-23 15:34 | -37.44952 | -69.32829 | 39132 ft | 480 kts | 161° |
| 2026-04-23 15:35 | -37.51095 | -69.29524 | 39118 ft | 478 kts | 161° |
| 2026-04-23 15:35 | -37.54138 | -69.27885 | 39012 ft | 476 kts | 161° |
| 2026-04-23 15:35 | -37.57200 | -69.26234 | 38518 ft | 476 kts | 161° |
| 2026-04-23 15:35 | -37.60250 | -69.24590 | 37796 ft | 477 kts | 161° |
| 2026-04-23 15:36 | -37.63269 | -69.22961 | 37010 ft | 478 kts | 161° |
| 2026-04-23 15:36 | -37.66347 | -69.21298 | 36200 ft | 480 kts | 161° |
| 2026-04-23 15:36 | -37.69370 | -69.19664 | 35410 ft | 481 kts | 160° |
| 2026-04-23 15:36 | -37.72472 | -69.17984 | 34670 ft | 480 kts | 160° |
| 2026-04-23 15:37 | -37.75541 | -69.16320 | 33927 ft | 479 kts | 160° |
| 2026-04-23 15:37 | -37.78572 | -69.14675 | 33044 ft | 479 kts | 160° |
| 2026-04-23 15:37 | -37.80614 | -69.13566 | 32429 ft | 479 kts | 160° |
| 2026-04-23 15:37 | -37.84706 | -69.11342 | 31201 ft | 481 kts | 160° |
| 2026-04-23 15:38 | -37.87787 | -69.09664 | 30330 ft | 481 kts | 160° |
| 2026-04-23 15:38 | -37.90844 | -69.07998 | 29293 ft | 482 kts | 160° |
| 2026-04-23 15:38 | -37.93910 | -69.06324 | 28526 ft | 477 kts | 160° |
| 2026-04-23 15:38 | -37.96954 | -69.04660 | 27832 ft | 471 kts | 160° |
| 2026-04-23 15:39 | -37.99905 | -69.03045 | 27259 ft | 463 kts | 160° |
| 2026-04-23 15:39 | -38.02864 | -69.01425 | 26666 ft | 456 kts | 160° |
| 2026-04-23 15:39 | -38.05763 | -68.99838 | 26088 ft | 449 kts | 160° |
| 2026-04-23 15:39 | -38.08611 | -68.98277 | 25539 ft | 443 kts | 160° |
| 2026-04-23 15:40 | -38.10480 | -68.97252 | 25104 ft | 441 kts | 160° |
| 2026-04-23 15:40 | -38.13275 | -68.95719 | 24591 ft | 434 kts | 160° |
| 2026-04-23 15:40 | -38.16029 | -68.94207 | 24046 ft | 429 kts | 160° |
| 2026-04-23 15:40 | -38.18763 | -68.92704 | 23445 ft | 425 kts | 160° |
| 2026-04-23 15:41 | -38.21471 | -68.91214 | 22892 ft | 418 kts | 160° |
| 2026-04-23 15:41 | -38.24080 | -68.89776 | 22363 ft | 412 kts | 160° |
| 2026-04-23 15:41 | -38.26701 | -68.88331 | 21825 ft | 406 kts | 160° |
| 2026-04-23 15:41 | -38.29281 | -68.86908 | 21298 ft | 401 kts | 160° |
| 2026-04-23 15:42 | -38.31833 | -68.85500 | 20772 ft | 396 kts | 161° |
| 2026-04-23 15:42 | -38.34345 | -68.84114 | 20254 ft | 392 kts | 161° |
| 2026-04-23 15:42 | -38.36815 | -68.82749 | 19729 ft | 389 kts | 161° |
| 2026-04-23 15:42 | -38.39305 | -68.81372 | 19162 ft | 387 kts | 161° |
| 2026-04-23 15:43 | -38.41771 | -68.80008 | 18695 ft | 383 kts | 161° |
| 2026-04-23 15:43 | -38.44189 | -68.78669 | 18107 ft | 382 kts | 161° |
| 2026-04-23 15:43 | -38.46620 | -68.77321 | 17647 ft | 376 kts | 161° |
| 2026-04-23 15:43 | -38.49008 | -68.75996 | 17162 ft | 372 kts | 161° |
| 2026-04-23 15:44 | -38.51347 | -68.74697 | 16661 ft | 368 kts | 161° |
| 2026-04-23 15:44 | -38.53681 | -68.73401 | 16162 ft | 365 kts | 161° |
| 2026-04-23 15:44 | -38.56001 | -68.72111 | 15676 ft | 362 kts | 161° |
| 2026-04-23 15:44 | -38.58305 | -68.70830 | 15184 ft | 359 kts | 161° |
| 2026-04-23 15:45 | -38.60577 | -68.69566 | 14710 ft | 357 kts | 161° |
| 2026-04-23 15:45 | -38.62830 | -68.68286 | 14223 ft | 356 kts | 157° |
| 2026-04-23 15:45 | -38.64817 | -68.66347 | 13722 ft | 363 kts | 135° |
| 2026-04-23 15:45 | -38.66152 | -68.63604 | 13245 ft | 365 kts | 114° |
| 2026-04-23 15:46 | -38.66989 | -68.60536 | 12736 ft | 363 kts | 110° |
| 2026-04-23 15:46 | -38.67768 | -68.57517 | 12266 ft | 360 kts | 110° |
| 2026-04-23 15:46 | -38.68552 | -68.54474 | 11780 ft | 357 kts | 110° |
| 2026-04-23 15:46 | -38.69335 | -68.51460 | 11299 ft | 355 kts | 110° |
| 2026-04-23 15:47 | -38.70119 | -68.48470 | 10826 ft | 353 kts | 110° |
| 2026-04-23 15:47 | -38.70818 | -68.45814 | 10505 ft | 347 kts | 110° |
| 2026-04-23 15:47 | -38.71564 | -68.42972 | 10309 ft | 329 kts | 110° |
| 2026-04-23 15:47 | -38.72279 | -68.40252 | 9947 ft | 318 kts | 110° |
| 2026-04-23 15:48 | -38.72986 | -68.37566 | 9551 ft | 316 kts | 110° |
| 2026-04-23 15:48 | -38.73682 | -68.34921 | 9258 ft | 309 kts | 110° |
| 2026-04-23 15:48 | -38.74360 | -68.32339 | 9132 ft | 308 kts | 110° |
| 2026-04-23 15:48 | -38.75039 | -68.29750 | 9009 ft | 309 kts | 110° |
| 2026-04-23 15:49 | -38.75725 | -68.27132 | 8742 ft | 308 kts | 110° |
| 2026-04-23 15:49 | -38.76405 | -68.24531 | 8383 ft | 307 kts | 110° |
| 2026-04-23 15:49 | -38.77081 | -68.21943 | 8027 ft | 304 kts | 110° |
| 2026-04-23 15:49 | -38.77745 | -68.19396 | 7669 ft | 301 kts | 110° |
| 2026-04-23 15:50 | -38.78403 | -68.16870 | 7330 ft | 298 kts | 110° |
| 2026-04-23 15:50 | -38.79058 | -68.14357 | 6974 ft | 296 kts | 110° |
| 2026-04-23 15:50 | -38.79703 | -68.11881 | 6619 ft | 295 kts | 109° |
| 2026-04-23 15:50 | -38.80356 | -68.09367 | 6264 ft | 293 kts | 109° |
| 2026-04-23 15:51 | -38.80994 | -68.06913 | 5905 ft | 292 kts | 109° |
| 2026-04-23 15:51 | -38.81629 | -68.04450 | 5561 ft | 290 kts | 109° |
| 2026-04-23 15:51 | -38.82265 | -68.01994 | 5246 ft | 286 kts | 109° |
| 2026-04-23 15:51 | -38.82885 | -67.99608 | 5140 ft | 281 kts | 109° |
| 2026-04-23 15:52 | -38.83485 | -67.97287 | 5132 ft | 267 kts | 109° |
| 2026-04-23 15:52 | -38.84054 | -67.95083 | 5130 ft | 252 kts | 109° |
| 2026-04-23 15:52 | -38.84770 | -67.93113 | 5152 ft | 237 kts | 133° |
| 2026-04-23 15:52 | -38.86034 | -67.91918 | 5118 ft | 222 kts | 166° |
| 2026-04-23 15:53 | -38.87490 | -67.91663 | 4951 ft | 203 kts | 188° |
| 2026-04-23 15:53 | -38.88894 | -67.91821 | 4590 ft | 201 kts | 193° |
| 2026-04-23 15:53 | -38.90279 | -67.92024 | 4212 ft | 202 kts | 191° |
| 2026-04-23 15:53 | -38.91667 | -67.92152 | 3994 ft | 204 kts | 188° |
| 2026-04-23 15:54 | -38.93099 | -67.92234 | 3765 ft | 202 kts | 192° |
| 2026-04-23 15:54 | -38.94333 | -67.92913 | 3554 ft | 192 kts | 230° |
| 2026-04-23 15:54 | -38.94930 | -67.94370 | 3560 ft | 188 kts | 265° |
| 2026-04-23 15:54 | -38.94935 | -67.96008 | 3445 ft | 181 kts | 273° |
| 2026-04-23 15:55 | -38.94919 | -67.97595 | 3317 ft | 165 kts | 272° |
| 2026-04-23 15:55 | -38.94910 | -67.98981 | 3146 ft | 146 kts | 272° |
| 2026-04-23 15:55 | -38.94913 | -68.00217 | 2917 ft | 135 kts | 271° |
| 2026-04-23 15:55 | -38.94918 | -68.01429 | 2648 ft | 131 kts | 271° |
| 2026-04-23 15:56 | -38.94918 | -68.02614 | 2607 ft | 138 kts | 271° |
| 2026-04-23 15:56 | -38.94917 | -68.03849 | 2554 ft | 138 kts | 271° |
| 2026-04-23 15:56 | -38.94916 | -68.05076 | 2357 ft | 136 kts | 271° |
| 2026-04-23 15:56 | -38.94909 | -68.06224 | 2186 ft | 136 kts | 270° |
| 2026-04-23 15:57 | -38.94908 | -68.07432 | 1991 ft | 135 kts | 270° |
| 2026-04-23 15:57 | -38.94910 | -68.08637 | 1804 ft | 137 kts | 270° |
| 2026-04-23 15:57 | -38.94911 | -68.09881 | 1608 ft | 135 kts | 271° |
| 2026-04-23 15:57 | -38.94910 | -68.11049 | 1429 ft | 133 kts | 270° |
| 2026-04-23 15:58 | -38.94907 | -68.12273 | 1258 ft | 137 kts | 270° |
| 2026-04-23 15:58 | -38.94902 | -68.13467 | 1071 ft | 134 kts | 270° |
| 2026-04-23 15:58 | -38.94900 | -68.14667 | 902 ft | 128 kts | 269° |
| 2026-04-23 15:58 | -38.94903 | -68.15547 | 905 ft | 69 kts | 270° |
| 2026-04-23 15:59 | -38.94901 | -68.15995 | 906 ft | 43 kts | 269° |
| 2026-04-23 15:59 | -38.94901 | -68.16364 | 903 ft | 39 kts | 269° |
| 2026-04-23 15:59 | -38.94901 | -68.16700 | 900 ft | 37 kts | 272° |
| 2026-04-23 15:59 | -38.94926 | -68.16971 | 903 ft | 19 kts | 251° |
| 2026-04-23 16:00 | -38.94918 | -68.17014 | 902 ft | 0 kts | 333° |
| 2026-04-23 16:00 | -38.94914 | -68.17009 | 909 ft | 1 kts | 29° |
| 2026-04-23 16:00 | -38.94904 | -68.16981 | 905 ft | 7 kts | 68° |
| 2026-04-23 16:00 | -38.94899 | -68.16903 | 905 ft | 11 kts | 100° |
| 2026-04-23 16:01 | -38.94900 | -68.16786 | 900 ft | 15 kts | 89° |
| 2026-04-23 16:01 | -38.94899 | -68.16636 | 901 ft | 18 kts | 90° |
| 2026-04-23 16:01 | -38.94900 | -68.16467 | 902 ft | 20 kts | 90° |
| 2026-04-23 16:01 | -38.94901 | -68.16273 | 903 ft | 23 kts | 90° |
| 2026-04-23 16:02 | -38.94903 | -68.16062 | 905 ft | 24 kts | 90° |
| 2026-04-23 16:02 | -38.94903 | -68.15836 | 905 ft | 27 kts | 89° |
| 2026-04-23 16:02 | -38.94903 | -68.15586 | 905 ft | 29 kts | 91° |
| 2026-04-23 16:02 | -38.94900 | -68.15315 | 902 ft | 32 kts | 90° |
| 2026-04-23 16:03 | -38.94924 | -68.15103 | 902 ft | 21 kts | 121° |
| 2026-04-23 16:03 | -38.94990 | -68.15016 | 906 ft | 14 kts | 136° |
| 2026-04-23 16:03 | -38.95064 | -68.14924 | 903 ft | 16 kts | 136° |
| 2026-04-23 16:03 | -38.95092 | -68.14786 | 903 ft | 18 kts | 90° |
| 2026-04-23 16:04 | -38.95091 | -68.14617 | 903 ft | 21 kts | 89° |
| 2026-04-23 16:04 | -38.95095 | -68.14422 | 903 ft | 23 kts | 92° |
| 2026-04-23 16:04 | -38.95095 | -68.14209 | 903 ft | 25 kts | 88° |
| 2026-04-23 16:04 | -38.95093 | -68.14137 | 903 ft | 2 kts | 89° |
| 2026-04-23 16:05 | -38.95093 | -68.14119 | 903 ft | 4 kts | 89° |
| 2026-04-23 16:05 | -38.95108 | -68.14067 | 905 ft | 3 kts | 180° |
| 2026-04-23 16:05 | -38.95144 | -68.14069 | 903 ft | 7 kts | 181° |
| 2026-04-23 16:05 | -38.95157 | -68.14069 | 903 ft | 0 kts | 181° |